Terminal Aerodrome Forecast
Issued by NWS

Home | Current Version | Previous Version | Text Only | Print | Product List | Glossary On
Versions: 1 2 3 4 5 6 7 8 9 10 11 12 13 14 15 16
000
FTUS44 KOUN 250520
TAFPNC
TAF
KPNC 250520Z 2506/2606 17013G31KT P6SM FEW014 SCT050 OVC060
      TEMPO 2506/2510 3/4SM +TSRA BKN007CB
     FM251000 15010KT P6SM FEW007 BKN019
     FM251600 16012KT P6SM BKN035=

USA.gov is the U.S. government's official web portal to all federal, state and local government web resources and services.